createdAt,value
2017-02-09T00:00:11.089Z,93.62
2017-02-09T00:00:39.198Z,93.48
2017-02-09T00:01:07.261Z,93.72
2017-02-09T00:01:35.507Z,93.72
2017-02-09T00:02:03.727Z,93.52
2017-02-09T00:02:31.930Z,93.62
2017-02-09T00:03:00.310Z,93.87
2017-02-09T00:03:28.442Z,93.67
2017-02-09T00:03:56.546Z,93.81
2017-02-09T00:04:24.729Z,93.52
2017-02-09T00:04:52.876Z,93.72
2017-02-09T00:05:20.812Z,93.87
2017-02-09T00:05:49.044Z,94.06
2017-02-09T00:06:17.257Z,93.14
2017-02-09T00:06:45.445Z,92.76
2017-02-09T00:07:13.497Z,92.94
2017-02-09T00:07:41.686Z,93.14
2017-02-09T00:08:09.792Z,93.14
2017-02-09T00:08:38.026Z,93.14
2017-02-09T00:09:06.141Z,93.33
2017-02-09T00:09:34.382Z,92.76
2017-02-09T00:10:02.478Z,92.94
2017-02-09T00:10:30.618Z,92.76
2017-02-09T00:10:58.835Z,92.56
2017-02-09T00:11:26.942Z,92.76
2017-02-09T00:11:54.890Z,92.76
2017-02-09T00:12:23.077Z,93.04
2017-02-09T00:12:51.007Z,93.33
2017-02-09T00:13:19.387Z,92.94
2017-02-09T00:13:47.495Z,92.94
2017-02-09T00:14:15.519Z,93.14
2017-02-09T00:14:43.537Z,93.24
2017-02-09T00:15:11.534Z,92.94
2017-02-09T00:15:39.751Z,93.14
2017-02-09T00:16:07.851Z,93.33
2017-02-09T00:16:35.962Z,93.52
2017-02-09T00:17:04.092Z,93.33
2017-02-09T00:17:32.196Z,93.43
2017-02-09T00:18:00.136Z,92.94
2017-02-09T00:18:28.382Z,93.14
2017-02-09T00:18:56.525Z,93.04
2017-02-09T00:19:24.658Z,92.85
2017-02-09T00:19:52.776Z,93.04
2017-02-09T00:20:20.921Z,92.85
2017-02-09T00:20:49.049Z,92.85
2017-02-09T00:21:17.089Z,93.24
2017-02-09T00:21:45.199Z,93.04
2017-02-09T00:22:13.304Z,93.14
2017-02-09T00:22:41.492Z,93.14
2017-02-09T00:23:09.564Z,93.43
2017-02-09T00:23:37.966Z,93.33
2017-02-09T00:24:06.157Z,93.43
2017-02-09T00:24:34.101Z,93.33
2017-02-09T00:25:02.330Z,93.33
2017-02-09T00:25:30.454Z,93.33
2017-02-09T00:25:58.819Z,93.19
2017-02-09T00:26:26.921Z,92.94
2017-02-09T00:26:54.933Z,92.94
2017-02-09T00:27:22.984Z,93.19
2017-02-09T00:27:51.060Z,93.24
2017-02-09T00:28:19.327Z,93.04
2017-02-09T00:28:47.451Z,93.43
2017-02-09T00:29:15.415Z,93.33
2017-02-09T00:29:43.526Z,92.8
2017-02-09T00:30:11.719Z,92.8
2017-02-09T00:30:39.822Z,92.85
2017-02-09T00:31:08.033Z,93.19
2017-02-09T00:31:36.251Z,93.19
2017-02-09T00:32:04.377Z,93.48
2017-02-09T00:32:32.494Z,93.14
2017-02-09T00:33:00.612Z,93.33
2017-02-09T00:33:28.967Z,93.33
2017-02-09T00:33:57.089Z,92.85
2017-02-09T00:34:25.045Z,92.85
2017-02-09T00:34:53.282Z,92.76
2017-02-09T00:35:21.385Z,92.76
2017-02-09T00:35:49.518Z,92.61
2017-02-09T00:36:17.632Z,92.08
2017-02-09T00:36:45.740Z,92.56
2017-02-09T00:37:13.981Z,92.37
2017-02-09T00:37:42.047Z,92.61
2017-02-09T00:38:10.131Z,92.47
2017-02-09T00:38:38.279Z,92.66
2017-02-09T00:39:06.552Z,92.42
2017-02-09T00:39:34.689Z,92.71
2017-02-09T00:40:02.887Z,92.42
2017-02-09T00:40:30.911Z,92.66
2017-02-09T00:40:59.075Z,92.03
2017-02-09T00:41:27.102Z,92.18
2017-02-09T00:41:55.213Z,92.03
2017-02-09T00:42:23.379Z,92.03
2017-02-09T00:42:51.589Z,92.32
2017-02-09T00:43:19.807Z,92.22
2017-02-09T00:43:48.091Z,92.76
2017-02-09T00:44:16.309Z,92.42
2017-02-09T00:44:44.322Z,92.42
2017-02-09T00:45:12.516Z,92.42
2017-02-09T00:45:40.648Z,92.37
2017-02-09T00:46:08.799Z,92.61
2017-02-09T00:46:36.886Z,92.22
2017-02-09T00:47:05.032Z,92.22
2017-02-09T00:47:33.030Z,92.27
2017-02-09T00:48:01.113Z,92.13
2017-02-09T00:48:29.541Z,92.03
2017-02-09T00:48:57.549Z,92.03
2017-02-09T00:49:25.663Z,92.18
2017-02-09T00:49:53.719Z,92.37
2017-02-09T00:50:21.808Z,92.32
2017-02-09T00:50:49.898Z,91.99
2017-02-09T00:51:18.043Z,92.08
2017-02-09T00:51:46.245Z,91.75
2017-02-09T00:52:14.423Z,92.32
2017-02-09T00:52:42.559Z,92.42
2017-02-09T00:53:10.677Z,92.76
2017-02-09T00:53:38.880Z,92.85
2017-02-09T00:54:07.008Z,93.04
2017-02-09T00:54:35.244Z,93.04
2017-02-09T00:55:03.385Z,93.04
2017-02-09T00:55:31.415Z,92.8
2017-02-09T00:55:59.579Z,92.9
2017-02-09T00:56:27.693Z,93
2017-02-09T00:56:55.944Z,93
2017-02-09T00:57:24.097Z,92.61
2017-02-09T00:57:52.137Z,92.47
2017-02-09T00:58:20.300Z,93
2017-02-09T00:58:48.531Z,93
2017-02-09T00:59:16.661Z,93.19
2017-02-09T00:59:44.816Z,93.19
2017-02-09T01:00:13.055Z,92.9
2017-02-09T01:00:41.190Z,92.9
2017-02-09T01:01:09.293Z,93.09
2017-02-09T01:01:37.439Z,93.77
2017-02-09T01:02:05.459Z,93.96
2017-02-09T01:02:33.651Z,93.29
2017-02-09T01:03:01.701Z,93.48
2017-02-09T01:03:29.940Z,93.38
2017-02-09T01:03:58.236Z,93.67
2017-02-09T01:04:26.398Z,93.77
2017-02-09T01:04:54.431Z,93.87
2017-02-09T01:05:22.646Z,94.06
2017-02-09T01:05:50.741Z,93.87
2017-02-09T01:06:18.890Z,94.15
2017-02-09T01:06:46.881Z,94.34
2017-02-09T01:07:14.913Z,94.34
2017-02-09T01:07:43.225Z,94.34
2017-02-09T01:08:11.395Z,93.67
2017-02-09T01:08:39.729Z,93.67
2017-02-09T01:09:07.856Z,94.64
2017-02-09T01:09:36.221Z,94.64
2017-02-09T01:10:04.343Z,94.54
2017-02-09T01:10:32.453Z,94.44
2017-02-09T01:11:00.614Z,94.44
2017-02-09T01:11:28.769Z,94.44
2017-02-09T01:11:56.866Z,94.73
2017-02-09T01:12:24.929Z,93.96
2017-02-09T01:12:53.142Z,93.96
2017-02-09T01:13:21.219Z,94.15
2017-02-09T01:13:49.718Z,94.06
2017-02-09T01:14:17.949Z,93.67
2017-02-09T01:14:46.082Z,94.64
2017-02-09T01:15:14.221Z,93.96
2017-02-09T01:15:42.329Z,94.73
2017-02-09T01:16:10.444Z,94.06
2017-02-09T01:16:38.557Z,94.44
2017-02-09T01:17:06.635Z,94.06
2017-02-09T01:17:34.781Z,95.02
2017-02-09T01:18:03.035Z,94.44
2017-02-09T01:18:31.024Z,94.64
2017-02-09T01:18:59.099Z,94.34
2017-02-09T01:19:27.227Z,94.73
2017-02-09T01:19:55.493Z,94.44
2017-02-09T01:20:23.677Z,94.64
2017-02-09T01:20:51.689Z,94.64
2017-02-09T01:21:19.915Z,94.73
2017-02-09T01:21:47.817Z,94.73
2017-02-09T01:22:16.011Z,94.82
2017-02-09T01:22:43.956Z,94.73
2017-02-09T01:23:12.104Z,94.73
2017-02-09T01:23:40.132Z,94.25
2017-02-09T01:24:08.353Z,94.44
2017-02-09T01:24:36.511Z,94.34
2017-02-09T01:25:04.757Z,94.64
2017-02-09T01:25:32.790Z,93.87
2017-02-09T01:26:00.996Z,93.67
2017-02-09T01:26:29.198Z,93.77
2017-02-09T01:26:57.364Z,93.77
2017-02-09T01:27:25.597Z,93.87
2017-02-09T01:27:53.613Z,93.87
2017-02-09T01:28:21.732Z,93.87
2017-02-09T01:28:49.966Z,93.96
2017-02-09T01:29:18.386Z,93
2017-02-09T01:29:46.436Z,93.09
2017-02-09T01:30:14.477Z,93.19
2017-02-09T01:30:42.575Z,93.09
2017-02-09T01:31:10.760Z,93.29
2017-02-09T01:31:38.894Z,93.09
2017-02-09T01:32:07.134Z,92.9
2017-02-09T01:32:35.364Z,93.29
2017-02-09T01:33:03.302Z,93
2017-02-09T01:33:31.506Z,93.29
2017-02-09T01:33:59.789Z,93.29
2017-02-09T01:34:27.991Z,93.19
2017-02-09T01:34:56.236Z,93.19
2017-02-09T01:35:24.471Z,92.8
2017-02-09T01:35:52.679Z,93.09
2017-02-09T01:36:20.820Z,93.29
2017-02-09T01:36:48.848Z,93.29
2017-02-09T01:37:16.973Z,93.29
2017-02-09T01:37:45.215Z,93.19
2017-02-09T01:38:13.258Z,93.57
2017-02-09T01:38:41.345Z,93.57
2017-02-09T01:39:09.652Z,93.96
2017-02-09T01:39:37.670Z,94.15
2017-02-09T01:40:05.793Z,94.15
2017-02-09T01:40:33.923Z,94.15
2017-02-09T01:41:02.029Z,93.87
2017-02-09T01:41:30.130Z,93.57
2017-02-09T01:41:58.383Z,93.67
2017-02-09T01:42:26.504Z,93.77
2017-02-09T01:42:54.743Z,93.67
2017-02-09T01:43:22.792Z,93.87
2017-02-09T01:43:50.909Z,93.67
2017-02-09T01:44:19.259Z,93.48
2017-02-09T01:44:47.250Z,93.57
2017-02-09T01:45:15.321Z,93.48
2017-02-09T01:45:43.482Z,93.48
2017-02-09T01:46:11.650Z,93.96
2017-02-09T01:46:39.886Z,94.06
2017-02-09T01:47:07.934Z,94.06
2017-02-09T01:47:35.970Z,93.67
2017-02-09T01:48:04.055Z,94.06
2017-02-09T01:48:32.184Z,94.06
2017-02-09T01:49:00.316Z,93.96
2017-02-09T01:49:28.551Z,93.67
2017-02-09T01:49:56.689Z,94.06
2017-02-09T01:50:24.927Z,93.96
2017-02-09T01:50:53.064Z,94.34
2017-02-09T01:51:21.279Z,94.44
2017-02-09T01:51:49.429Z,94.64
2017-02-09T01:52:17.481Z,94.92
2017-02-09T01:52:45.716Z,95.21
2017-02-09T01:53:13.912Z,95.5
2017-02-09T01:53:42.149Z,95.69
2017-02-09T01:54:10.404Z,95.6
2017-02-09T01:54:38.683Z,95.12
2017-02-09T01:55:06.855Z,95.31
2017-02-09T01:55:34.891Z,95.74
2017-02-09T01:56:03.101Z,95.65
2017-02-09T01:56:31.306Z,95.89
2017-02-09T01:56:59.485Z,96.17
2017-02-09T01:57:27.590Z,96.17
2017-02-09T01:57:55.739Z,95.6
2017-02-09T01:58:23.885Z,95.89
2017-02-09T01:58:52.119Z,95.98
2017-02-09T01:59:20.405Z,95.6
2017-02-09T01:59:48.610Z,95.69
2017-02-09T02:00:16.813Z,95.98
2017-02-09T02:00:44.930Z,95.4
2017-02-09T02:01:12.864Z,95.5
2017-02-09T02:01:40.903Z,95.5
2017-02-09T02:02:08.943Z,95.5
2017-02-09T02:02:37.139Z,95.02
2017-02-09T02:03:05.236Z,95.12
2017-02-09T02:03:33.240Z,95.79
2017-02-09T02:04:01.474Z,95.21
2017-02-09T02:04:29.792Z,95.31
2017-02-09T02:04:57.713Z,95.12
2017-02-09T02:05:25.709Z,95.21
2017-02-09T02:05:53.824Z,95.5
2017-02-09T02:06:22.045Z,95.6
2017-02-09T02:06:50.194Z,95.21
2017-02-09T02:07:18.426Z,95.6
2017-02-09T02:07:46.456Z,96.17
2017-02-09T02:08:14.679Z,96.42
2017-02-09T02:08:42.776Z,96.61
2017-02-09T02:09:10.892Z,96.37
2017-02-09T02:09:39.137Z,96.8
2017-02-09T02:10:07.361Z,97.19
2017-02-09T02:10:36.085Z,96.99
2017-02-09T02:11:04.193Z,96.61
2017-02-09T02:11:32.412Z,97.19
2017-02-09T02:12:00.640Z,97.19
2017-02-09T02:12:28.820Z,97.38
2017-02-09T02:12:57.001Z,97.09
2017-02-09T02:13:25.108Z,97.38
2017-02-09T02:13:53.236Z,97.09
2017-02-09T02:14:21.504Z,97.04
2017-02-09T02:14:49.690Z,96.8
2017-02-09T02:15:17.940Z,96.85
2017-02-09T02:15:46.160Z,96.66
2017-02-09T02:16:14.392Z,96.66
2017-02-09T02:16:42.578Z,96.37
2017-02-09T02:17:10.615Z,96.27
2017-02-09T02:17:38.735Z,96.37
2017-02-09T02:18:06.862Z,96.08
2017-02-09T02:18:35.062Z,95.6
2017-02-09T02:19:03.229Z,95.89
2017-02-09T02:19:31.415Z,95.69
2017-02-09T02:19:59.519Z,95.21
2017-02-09T02:20:27.522Z,95.31
2017-02-09T02:20:55.570Z,94.92
2017-02-09T02:21:23.817Z,94.92
2017-02-09T02:21:51.980Z,95.6
2017-02-09T02:22:20.178Z,95.5
2017-02-09T02:22:48.385Z,95.02
2017-02-09T02:23:16.615Z,94.92
2017-02-09T02:23:44.662Z,95.21
2017-02-09T02:24:12.742Z,94.97
2017-02-09T02:24:40.942Z,94.44
2017-02-09T02:25:09.029Z,94.44
2017-02-09T02:25:37.009Z,94.73
2017-02-09T02:26:05.213Z,94.73
2017-02-09T02:26:33.331Z,94.73
2017-02-09T02:27:01.464Z,94.73
2017-02-09T02:27:29.548Z,94.3
2017-02-09T02:27:57.778Z,94.15
2017-02-09T02:28:25.896Z,94.34
2017-02-09T02:28:54.037Z,94.34
2017-02-09T02:29:22.204Z,94.44
2017-02-09T02:29:50.441Z,94.54
2017-02-09T02:30:18.644Z,94.15
2017-02-09T02:30:46.790Z,93.96
2017-02-09T02:31:14.985Z,94.1
2017-02-09T02:31:43.205Z,94.25
2017-02-09T02:32:11.412Z,94.25
2017-02-09T02:32:39.596Z,94.01
2017-02-09T02:33:07.680Z,94.01
2017-02-09T02:33:35.786Z,94.01
2017-02-09T02:34:03.924Z,94.01
2017-02-09T02:34:32.092Z,94.01
2017-02-09T02:35:00.368Z,94.1
2017-02-09T02:35:28.577Z,93.33
2017-02-09T02:35:56.505Z,93.43
2017-02-09T02:36:24.717Z,93.53
2017-02-09T02:36:52.754Z,93.91
2017-02-09T02:37:20.996Z,93.82
2017-02-09T02:37:49.099Z,93.91
2017-02-09T02:38:17.300Z,93.72
2017-02-09T02:38:45.418Z,93.82
2017-02-09T02:39:13.662Z,94.01
2017-02-09T02:39:41.998Z,94.2
2017-02-09T02:40:10.106Z,94.1
2017-02-09T02:40:38.211Z,94.01
2017-02-09T02:41:06.234Z,94.01
2017-02-09T02:41:34.326Z,93.43
2017-02-09T02:42:02.299Z,93.62
2017-02-09T02:42:30.397Z,93.53
2017-02-09T02:42:58.589Z,93.43
2017-02-09T02:43:26.739Z,93.58
2017-02-09T02:43:54.864Z,93.62
2017-02-09T02:44:23.151Z,94.1
2017-02-09T02:44:51.480Z,94.1
2017-02-09T02:45:19.653Z,94.01
2017-02-09T02:45:47.780Z,93.72
2017-02-09T02:46:15.908Z,93.82
2017-02-09T02:46:43.947Z,94.01
2017-02-09T02:47:11.865Z,94.01
2017-02-09T02:47:40.000Z,93.82
2017-02-09T02:48:08.186Z,93.77
2017-02-09T02:48:36.327Z,93.53
2017-02-09T02:49:04.436Z,93.72
2017-02-09T02:49:32.635Z,93.77
2017-02-09T02:50:00.934Z,93.68
2017-02-09T02:50:29.073Z,93.53
2017-02-09T02:50:56.930Z,93.62
2017-02-09T02:51:25.172Z,93.96
2017-02-09T02:51:53.341Z,93.77
2017-02-09T02:52:21.458Z,93.77
2017-02-09T02:52:49.682Z,93.48
2017-02-09T02:53:17.835Z,94.06
2017-02-09T02:53:45.902Z,94.06
2017-02-09T02:54:13.975Z,93.87
2017-02-09T02:54:42.162Z,93.87
2017-02-09T02:55:10.480Z,94.06
2017-02-09T02:55:38.713Z,94.06
2017-02-09T02:56:06.911Z,93.58
2017-02-09T02:56:35.158Z,93.58
2017-02-09T02:57:03.378Z,93.87
2017-02-09T02:57:31.472Z,94.64
2017-02-09T02:57:59.663Z,94.35
2017-02-09T02:58:27.860Z,94.54
2017-02-09T02:58:55.968Z,94.45
2017-02-09T02:59:24.087Z,94.45
2017-02-09T02:59:52.198Z,94.06
2017-02-09T03:00:20.674Z,93.96
2017-02-09T03:00:48.862Z,94.06
2017-02-09T03:01:17.122Z,93.87
2017-02-09T03:01:45.394Z,93.68
2017-02-09T03:02:13.496Z,93.77
2017-02-09T03:02:41.722Z,93.96
2017-02-09T03:03:09.750Z,94.64
2017-02-09T03:03:37.956Z,94.06
2017-02-09T03:04:05.889Z,94.35
2017-02-09T03:04:33.987Z,94.54
2017-02-09T03:05:02.202Z,94.64
2017-02-09T03:05:30.344Z,94.54
2017-02-09T03:05:58.425Z,94.64
2017-02-09T03:06:26.571Z,94.92
2017-02-09T03:06:54.756Z,94.54
2017-02-09T03:07:22.985Z,94.64
2017-02-09T03:07:51.230Z,95.12
2017-02-09T03:08:19.263Z,95.12
2017-02-09T03:08:47.375Z,95.02
2017-02-09T03:09:15.608Z,95.21
2017-02-09T03:09:43.726Z,95.4
2017-02-09T03:10:11.928Z,95.4
2017-02-09T03:10:40.018Z,95.12
2017-02-09T03:11:08.191Z,95.21
2017-02-09T03:11:36.379Z,95.02
2017-02-09T03:12:04.492Z,95.12
2017-02-09T03:12:32.685Z,95.4
2017-02-09T03:13:00.801Z,95.4
2017-02-09T03:13:28.958Z,95.4
2017-02-09T03:13:56.977Z,95.31
2017-02-09T03:14:25.108Z,95.12
2017-02-09T03:14:53.180Z,95.12
2017-02-09T03:15:21.481Z,95.21
2017-02-09T03:15:49.693Z,95.21
2017-02-09T03:16:17.932Z,94.73
2017-02-09T03:16:46.088Z,95.5
2017-02-09T03:17:14.248Z,94.83
2017-02-09T03:17:42.469Z,94.73
2017-02-09T03:18:10.489Z,94.83
2017-02-09T03:18:38.471Z,94.83
2017-02-09T03:19:06.611Z,94.64
2017-02-09T03:19:34.754Z,95.02
2017-02-09T03:20:02.834Z,94.64
2017-02-09T03:20:31.052Z,94.64
2017-02-09T03:20:59.023Z,94.73
2017-02-09T03:21:27.176Z,94.78
2017-02-09T03:21:55.318Z,94.73
2017-02-09T03:22:23.514Z,94.73
2017-02-09T03:22:51.377Z,94.64
2017-02-09T03:23:19.514Z,94.83
2017-02-09T03:23:47.604Z,94.92
2017-02-09T03:24:15.808Z,94.64
2017-02-09T03:24:43.870Z,94.54
2017-02-09T03:25:11.865Z,94.15
2017-02-09T03:25:40.009Z,94.64
2017-02-09T03:26:08.202Z,93.87
2017-02-09T03:26:36.406Z,93.96
2017-02-09T03:27:04.655Z,94.06
2017-02-09T03:27:32.806Z,93.96
2017-02-09T03:28:00.938Z,93.38
2017-02-09T03:28:29.031Z,93.48
2017-02-09T03:28:57.096Z,93.48
2017-02-09T03:29:25.271Z,93.58
2017-02-09T03:29:53.452Z,93.58
2017-02-09T03:30:21.681Z,93.58
2017-02-09T03:30:49.914Z,93.48
2017-02-09T03:31:18.021Z,93.38
2017-02-09T03:31:46.048Z,93.68
2017-02-09T03:32:14.073Z,93.58
2017-02-09T03:32:42.290Z,93.29
2017-02-09T03:33:10.388Z,93.68
2017-02-09T03:33:38.660Z,93.62
2017-02-09T03:34:06.699Z,93.77
2017-02-09T03:34:34.815Z,93.15
2017-02-09T03:35:03.035Z,93
2017-02-09T03:35:31.392Z,93.15
2017-02-09T03:35:59.553Z,93.1
2017-02-09T03:36:27.664Z,92.91
2017-02-09T03:36:55.841Z,92.85
2017-02-09T03:37:23.963Z,92.52
2017-02-09T03:37:52.200Z,92.66
2017-02-09T03:38:20.306Z,92.18
2017-02-09T03:38:48.461Z,91.89
2017-02-09T03:39:16.647Z,92.18
2017-02-09T03:39:44.862Z,91.99
2017-02-09T03:40:13.073Z,92.18
2017-02-09T03:40:41.191Z,92.28
2017-02-09T03:41:09.243Z,91.89
2017-02-09T03:41:37.391Z,92.08
2017-02-09T03:42:05.577Z,91.8
2017-02-09T03:42:33.781Z,91.89
2017-02-09T03:43:01.863Z,91.99
2017-02-09T03:43:29.996Z,92.18
2017-02-09T03:43:58.137Z,92.08
2017-02-09T03:44:26.316Z,92.08
2017-02-09T03:44:54.392Z,92.28
2017-02-09T03:45:22.642Z,92.28
2017-02-09T03:45:50.676Z,92.08
2017-02-09T03:46:18.891Z,92.13
2017-02-09T03:46:47.081Z,92.28
2017-02-09T03:47:15.257Z,92.18
2017-02-09T03:47:43.253Z,91.99
2017-02-09T03:48:11.466Z,92.23
2017-02-09T03:48:39.572Z,92.33
2017-02-09T03:49:07.583Z,92.66
2017-02-09T03:49:35.666Z,92.71
2017-02-09T03:50:03.792Z,93.19
2017-02-09T03:50:32.025Z,92.81
2017-02-09T03:51:00.149Z,92.71
2017-02-09T03:51:28.370Z,93.77
2017-02-09T03:51:56.577Z,93.58
2017-02-09T03:52:24.768Z,93.77
2017-02-09T03:52:52.873Z,93.58
2017-02-09T03:53:21.007Z,93.58
2017-02-09T03:53:49.091Z,93.68
2017-02-09T03:54:17.290Z,93.77
2017-02-09T03:54:45.327Z,93.58
2017-02-09T03:55:13.500Z,93.77
2017-02-09T03:55:41.595Z,93.96
2017-02-09T03:56:09.722Z,94.15
2017-02-09T03:56:37.962Z,93.87
2017-02-09T03:57:06.128Z,94.06
2017-02-09T03:57:34.245Z,94.06
2017-02-09T03:58:02.350Z,93.87
2017-02-09T03:58:30.600Z,94.45
2017-02-09T03:58:58.644Z,94.59
2017-02-09T03:59:26.802Z,94.21
2017-02-09T03:59:55.010Z,94.3
2017-02-09T04:00:23.110Z,94.59
2017-02-09T04:00:51.501Z,94.35
2017-02-09T04:01:19.554Z,94.59
2017-02-09T04:01:47.582Z,94.49
2017-02-09T04:02:15.666Z,94.4
2017-02-09T04:02:43.893Z,94.3
2017-02-09T04:03:12.024Z,94.59
2017-02-09T04:03:40.119Z,94.78
2017-02-09T04:04:08.058Z,94.98
2017-02-09T04:04:36.179Z,95.45
2017-02-09T04:05:04.293Z,95.36
2017-02-09T04:05:32.587Z,95.07
2017-02-09T04:06:00.688Z,95.07
2017-02-09T04:06:28.764Z,95.26
2017-02-09T04:06:56.957Z,95.26
2017-02-09T04:07:25.058Z,95.07
2017-02-09T04:07:53.268Z,95.07
2017-02-09T04:08:21.484Z,95.26
2017-02-09T04:08:49.560Z,95.84
2017-02-09T04:09:17.671Z,95.45
2017-02-09T04:09:45.849Z,95.55
2017-02-09T04:10:13.973Z,95.55
2017-02-09T04:10:42.301Z,95.45
2017-02-09T04:11:10.364Z,95.65
2017-02-09T04:11:38.537Z,95.45
2017-02-09T04:12:06.536Z,96.03
2017-02-09T04:12:34.660Z,96.03
2017-02-09T04:13:02.717Z,96.13
2017-02-09T04:13:30.899Z,96.03
2017-02-09T04:13:59.003Z,96.22
2017-02-09T04:14:27.143Z,96.32
2017-02-09T04:14:55.247Z,96.32
2017-02-09T04:15:23.390Z,96.03
2017-02-09T04:15:51.695Z,96.61
2017-02-09T04:16:19.801Z,96.42
2017-02-09T04:16:47.928Z,96.61
2017-02-09T04:17:16.117Z,96.13
2017-02-09T04:17:44.166Z,96.22
2017-02-09T04:18:12.181Z,96.99
2017-02-09T04:18:40.304Z,96.51
2017-02-09T04:19:08.391Z,96.8
2017-02-09T04:19:36.586Z,96.7
2017-02-09T04:20:04.771Z,97.19
2017-02-09T04:20:32.946Z,97.09
2017-02-09T04:21:01.187Z,96.99
2017-02-09T04:21:29.413Z,96.99
2017-02-09T04:21:57.674Z,97.38
2017-02-09T04:22:25.801Z,97.38
2017-02-09T04:22:53.895Z,97.47
2017-02-09T04:23:21.972Z,97.28
2017-02-09T04:23:50.056Z,97.19
2017-02-09T04:24:18.302Z,97.47
2017-02-09T04:24:46.541Z,97.28
2017-02-09T04:25:14.692Z,97.86
2017-02-09T04:25:42.927Z,97.96
2017-02-09T04:26:11.043Z,97.86
2017-02-09T04:26:39.123Z,97.19
2017-02-09T04:27:07.393Z,98.14
2017-02-09T04:27:35.597Z,97.96
2017-02-09T04:28:03.723Z,97.47
2017-02-09T04:28:31.851Z,97.96
2017-02-09T04:29:00.035Z,97.96
2017-02-09T04:29:28.186Z,97.76
2017-02-09T04:29:56.208Z,97.76
2017-02-09T04:30:24.268Z,97.76
2017-02-09T04:30:52.469Z,97.96
2017-02-09T04:31:20.468Z,98.34
2017-02-09T04:31:48.602Z,98
2017-02-09T04:32:16.710Z,97.96
2017-02-09T04:32:44.809Z,97.86
2017-02-09T04:33:12.952Z,97.76
2017-02-09T04:33:41.231Z,97.76
2017-02-09T04:34:09.469Z,97.76
2017-02-09T04:34:37.653Z,97.81
2017-02-09T04:35:05.857Z,97.81
2017-02-09T04:35:33.989Z,97.67
2017-02-09T04:36:02.234Z,98.34
2017-02-09T04:36:30.474Z,97.76
2017-02-09T04:36:58.690Z,97.86
2017-02-09T04:37:26.923Z,97.86
2017-02-09T04:37:55.053Z,98.29
2017-02-09T04:38:23.242Z,97.96
2017-02-09T04:38:51.462Z,97.86
2017-02-09T04:39:19.512Z,98.39
2017-02-09T04:39:47.616Z,97.81
2017-02-09T04:40:15.675Z,97.71
2017-02-09T04:40:43.658Z,97.67
2017-02-09T04:41:11.963Z,97.86
2017-02-09T04:41:40.185Z,97.96
2017-02-09T04:42:08.224Z,97.86
2017-02-09T04:42:36.316Z,97.81
2017-02-09T04:43:04.422Z,97.71
2017-02-09T04:43:32.659Z,97.81
2017-02-09T04:44:00.805Z,97.71
2017-02-09T04:44:29.011Z,98.1
2017-02-09T04:44:57.018Z,98.1
2017-02-09T04:45:25.268Z,98.1
2017-02-09T04:45:53.417Z,98.1
2017-02-09T04:46:21.801Z,97.91
2017-02-09T04:46:49.971Z,98.29
2017-02-09T04:47:18.144Z,98.1
2017-02-09T04:47:46.248Z,98.29
2017-02-09T04:48:14.497Z,98.29
2017-02-09T04:48:42.592Z,98.1
2017-02-09T04:49:10.718Z,98.29
2017-02-09T04:49:38.989Z,98.29
2017-02-09T04:50:07.187Z,98.34
2017-02-09T04:50:35.380Z,98.1
2017-02-09T04:51:03.524Z,98.1
2017-02-09T04:51:31.616Z,98.29
2017-02-09T04:51:59.760Z,98.29
2017-02-09T04:52:28.030Z,98
2017-02-09T04:52:56.235Z,98.05
2017-02-09T04:53:24.361Z,98.19
2017-02-09T04:53:52.471Z,98.14
2017-02-09T04:54:20.600Z,98.1
2017-02-09T04:54:48.830Z,98.05
2017-02-09T04:55:16.997Z,97.81
2017-02-09T04:55:45.200Z,97.86
2017-02-09T04:56:13.457Z,98.1
2017-02-09T04:56:41.697Z,98.19
2017-02-09T04:57:09.679Z,98.1
2017-02-09T04:57:37.867Z,98.34
2017-02-09T04:58:06.060Z,98.58
2017-02-09T04:58:34.265Z,98.58
2017-02-09T04:59:02.465Z,98.58
2017-02-09T04:59:30.501Z,98.58
2017-02-09T04:59:58.612Z,98.48
2017-02-09T05:00:26.834Z,98.48
2017-02-09T05:00:55.047Z,98.77
2017-02-09T05:01:23.134Z,98.48
2017-02-09T05:01:51.294Z,98.58
2017-02-09T05:02:19.412Z,98.96
2017-02-09T05:02:47.625Z,98.29
2017-02-09T05:03:15.821Z,98.39
2017-02-09T05:03:44.082Z,98.48
2017-02-09T05:04:12.195Z,98.86
2017-02-09T05:04:40.302Z,99.06
2017-02-09T05:05:08.522Z,98.96
2017-02-09T05:05:36.716Z,98.86
2017-02-09T05:06:04.966Z,98.86
2017-02-09T05:06:33.032Z,98.48
2017-02-09T05:07:01.291Z,98.77
2017-02-09T05:07:29.476Z,98.86
2017-02-09T05:07:57.578Z,99.35
2017-02-09T05:08:25.784Z,98.96
2017-02-09T05:08:54.030Z,99.25
2017-02-09T05:09:22.173Z,99.35
2017-02-09T05:09:50.287Z,99.06
2017-02-09T05:10:18.422Z,99.15
2017-02-09T05:10:46.665Z,99.35
2017-02-09T05:11:14.898Z,98.86
2017-02-09T05:11:42.807Z,98.86
2017-02-09T05:12:10.896Z,99.44
2017-02-09T05:12:39.087Z,99.44
2017-02-09T05:13:07.181Z,98.86
2017-02-09T05:13:35.372Z,99.06
2017-02-09T05:14:03.449Z,99.44
2017-02-09T05:14:31.703Z,99.15
2017-02-09T05:14:59.824Z,99.15
2017-02-09T05:15:28.080Z,99.35
2017-02-09T05:15:56.315Z,99.35
2017-02-09T05:16:24.650Z,99.3
2017-02-09T05:16:52.876Z,99.63
2017-02-09T05:17:20.910Z,99.15
2017-02-09T05:17:49.113Z,99.44
2017-02-09T05:18:17.279Z,98.68
2017-02-09T05:18:45.529Z,99.54
2017-02-09T05:19:13.639Z,99.25
2017-02-09T05:19:41.691Z,99.25
2017-02-09T05:20:09.861Z,99.25
2017-02-09T05:20:37.959Z,99.54
2017-02-09T05:21:06.179Z,99.83
2017-02-09T05:21:34.497Z,99.25
2017-02-09T05:22:02.739Z,99.44
2017-02-09T05:22:30.855Z,99.25
2017-02-09T05:22:58.985Z,99.25
2017-02-09T05:23:27.192Z,99.35
2017-02-09T05:23:55.258Z,99.06
2017-02-09T05:24:23.463Z,99.15
2017-02-09T05:24:51.601Z,99.25
2017-02-09T05:25:19.708Z,99.15
2017-02-09T05:25:47.726Z,99.44
2017-02-09T05:26:16.055Z,98.96
2017-02-09T05:26:44.064Z,98.86
2017-02-09T05:27:12.205Z,99.44
2017-02-09T05:27:40.408Z,99.73
2017-02-09T05:28:08.518Z,99.63
2017-02-09T05:28:36.703Z,99.63
2017-02-09T05:29:04.890Z,99.63
2017-02-09T05:29:32.902Z,99.44
2017-02-09T05:30:01.051Z,99.54
2017-02-09T05:30:29.238Z,99.44
2017-02-09T05:30:57.380Z,99.83
2017-02-09T05:31:25.590Z,99.54
2017-02-09T05:31:53.799Z,99.83
2017-02-09T05:32:21.810Z,99.99
2017-02-09T05:32:50.067Z,99.99
2017-02-09T05:33:18.287Z,99.87
2017-02-09T05:33:46.288Z,99.99
2017-02-09T05:34:14.511Z,99.99
2017-02-09T05:34:42.644Z,99.99
2017-02-09T05:35:10.893Z,99.99
2017-02-09T05:35:39.128Z,99.99
2017-02-09T05:36:07.308Z,99.99
2017-02-09T05:36:35.426Z,99.99
2017-02-09T05:37:03.517Z,99.99
2017-02-09T05:37:31.620Z,99.99
2017-02-09T05:37:59.743Z,99.99
2017-02-09T05:38:27.865Z,99.99
2017-02-09T05:38:56.094Z,99.99
2017-02-09T05:39:24.218Z,99.99
2017-02-09T05:39:52.429Z,99.99
2017-02-09T05:40:20.633Z,99.99
2017-02-09T05:40:48.842Z,99.99
2017-02-09T05:41:16.879Z,99.99
2017-02-09T05:41:45.175Z,99.99
2017-02-09T05:42:13.331Z,99.99
2017-02-09T05:42:41.459Z,99.99
2017-02-09T05:43:09.710Z,99.99
2017-02-09T05:43:37.862Z,99.92
2017-02-09T05:44:05.982Z,99.99
2017-02-09T05:44:34.167Z,99.99
2017-02-09T05:45:02.361Z,99.99
2017-02-09T05:45:30.428Z,99.99
2017-02-09T05:45:58.530Z,99.99
2017-02-09T05:46:26.772Z,99.99
2017-02-09T05:46:54.874Z,99.99
2017-02-09T05:47:23.095Z,99.99
2017-02-09T05:47:51.125Z,99.99
2017-02-09T05:48:19.310Z,99.99
2017-02-09T05:48:47.505Z,99.99
2017-02-09T05:49:15.527Z,99.99
2017-02-09T05:49:43.703Z,99.99
2017-02-09T05:50:11.754Z,99.99
2017-02-09T05:50:39.797Z,99.99
2017-02-09T05:51:07.834Z,99.99
2017-02-09T05:51:36.155Z,99.99
2017-02-09T05:52:04.346Z,99.99
2017-02-09T05:52:32.210Z,99.99
2017-02-09T05:53:00.312Z,99.99
2017-02-09T05:53:28.364Z,99.99
2017-02-09T05:53:56.569Z,99.99
2017-02-09T05:54:24.800Z,99.99
2017-02-09T05:54:52.844Z,99.99
2017-02-09T05:55:20.962Z,99.99
2017-02-09T05:55:49.180Z,99.99
2017-02-09T05:56:17.231Z,99.99
2017-02-09T05:56:45.523Z,99.99
2017-02-09T05:57:13.755Z,99.99
2017-02-09T05:57:41.811Z,99.99
2017-02-09T05:58:10.009Z,99.99
2017-02-09T05:58:38.154Z,99.99
2017-02-09T05:59:06.288Z,99.99
2017-02-09T05:59:34.364Z,99.99
2017-02-09T06:00:02.495Z,99.99
2017-02-09T06:00:30.651Z,99.99
2017-02-09T06:00:58.873Z,99.99
2017-02-09T06:01:27.036Z,99.99
2017-02-09T06:01:55.243Z,99.99
2017-02-09T06:02:23.450Z,99.99
2017-02-09T06:02:51.472Z,99.99
2017-02-09T06:03:19.640Z,99.99
2017-02-09T06:03:47.764Z,99.99